Time;durP1;ratioP1;P1;durP2;ratioP2;P2;SDS_P1;SDS_P2;PMS_P1;PMS_P2;Temp;Humidity;BMP_temperature;BMP_pressure;BME280_temperature;BME280_humidity;BME280_pressure;Samples;Min_cycle;Max_cycle;Signal;HPM_P1;HPM_P2
2024/02/23 00:00:47;;;;;;;4.78;2.17;;;;;;;;;;5014256;28;20026;-56
2024/02/23 00:03:12;;;;;;;4.20;2.20;;;;;;;;;;5013735;28;20506;-56
2024/02/23 00:05:37;;;;;;;3.80;1.95;;;;;;;;;;5013834;28;20069;-56
2024/02/23 00:08:02;;;;;;;4.77;2.10;;;;;;;;;;5013878;28;20033;-56
2024/02/23 00:10:27;;;;;;;4.10;1.90;;;;;;;;;;5014337;28;20029;-56
2024/02/23 00:12:52;;;;;;;3.65;1.65;;;;;;;;;;5014804;28;20045;-56
2024/02/23 00:15:18;;;;;;;4.45;1.63;;;;;;;;;;5015734;28;20109;-57
2024/02/23 00:17:43;;;;;;;3.60;1.60;;;;;;;;;;5022624;28;20022;-56
2024/02/23 00:20:10;;;;;;;3.60;1.60;;;;;;;;;;5005399;28;20050;-57
2024/02/23 00:22:35;;;;;;;3.25;1.42;;;;;;;;;;5005479;28;20033;-56
2024/02/23 00:25:00;;;;;;;3.70;1.90;;;;;;;;;;5009565;28;20026;-57
2024/02/23 00:27:26;;;;;;;3.40;1.70;;;;;;;;;;5000823;28;20045;-57
2024/02/23 00:29:51;;;;;;;3.60;1.73;;;;;;;;;;5000119;28;20049;-57
2024/02/23 00:32:16;;;;;;;3.92;2.08;;;;;;;;;;4994328;28;20082;-56
2024/02/23 00:34:41;;;;;;;3.42;1.77;;;;;;;;;;4993810;28;20023;-56
2024/02/23 00:37:07;;;;;;;4.13;2.00;;;;;;;;;;4995919;28;20045;-56
2024/02/23 00:39:33;;;;;;;3.60;1.75;;;;;;;;;;4999181;28;20033;-57
2024/02/23 00:41:58;;;;;;;3.80;2.10;;;;;;;;;;5033111;28;20021;-57
2024/02/23 00:44:23;;;;;;;3.90;2.03;;;;;;;;;;5032825;28;20021;-57
2024/02/23 00:46:48;;;;;;;3.65;1.85;;;;;;;;;;5027658;28;20382;-56
2024/02/23 00:49:14;;;;;;;3.90;1.80;;;;;;;;;;5013327;28;20049;-56
2024/02/23 00:51:39;;;;;;;3.77;1.70;;;;;;;;;;5013530;28;20022;-56
2024/02/23 00:54:04;;;;;;;3.20;1.48;;;;;;;;;;5015048;28;20108;-57
2024/02/23 00:56:29;;;;;;;1.90;0.80;;;;;;;;;;5013144;28;20033;-57
2024/02/23 00:58:54;;;;;;;2.28;0.90;;;;;;;;;;5012962;28;20033;-56
2024/02/23 01:01:19;;;;;;;2.30;0.90;;;;;;;;;;5012991;28;20029;-56
2024/02/23 01:03:44;;;;;;;2.25;0.88;;;;;;;;;;5012742;28;20057;-56
2024/02/23 01:06:10;;;;;;;1.33;0.50;;;;;;;;;;5013176;28;20021;-57
2024/02/23 01:08:35;;;;;;;1.30;0.50;;;;;;;;;;5013234;28;20101;-56
2024/02/23 01:11:00;;;;;;;1.40;0.50;;;;;;;;;;5013149;28;20033;-57
2024/02/23 01:13:26;;;;;;;0.80;0.40;;;;;;;;;;5012736;28;20042;-56
2024/02/23 01:15:51;;;;;;;0.88;0.32;;;;;;;;;;5012906;28;20026;-56
2024/02/23 01:18:16;;;;;;;0.98;0.38;;;;;;;;;;5012935;28;20089;-57
2024/02/23 01:20:42;;;;;;;1.13;0.43;;;;;;;;;;5012778;28;20104;-57
2024/02/23 01:23:07;;;;;;;1.30;0.40;;;;;;;;;;5012741;28;20029;-56
2024/02/23 01:25:34;;;;;;;1.38;0.40;;;;;;;;;;5012473;28;20193;-56
2024/02/23 01:27:59;;;;;;;1.02;0.40;;;;;;;;;;5013105;28;20018;-57
2024/02/23 01:30:25;;;;;;;1.55;0.40;;;;;;;;;;5012808;28;20489;-56
2024/02/23 01:32:50;;;;;;;0.90;0.30;;;;;;;;;;5012882;28;20030;-56
2024/02/23 01:35:15;;;;;;;0.88;0.30;;;;;;;;;;5012563;28;20393;-56
2024/02/23 01:37:41;;;;;;;2.37;0.60;;;;;;;;;;5013654;28;20014;-57
2024/02/23 01:40:06;;;;;;;1.40;0.40;;;;;;;;;;5014045;28;20220;-56
2024/02/23 01:42:31;;;;;;;0.55;0.30;;;;;;;;;;5000740;28;20454;-56
2024/02/23 01:44:57;;;;;;;0.98;0.40;;;;;;;;;;4995207;28;20125;-56
2024/02/23 01:47:23;;;;;;;1.00;0.37;;;;;;;;;;4996606;28;20007;-56
2024/02/23 01:49:48;;;;;;;1.27;0.50;;;;;;;;;;5001891;28;20437;-57
2024/02/23 01:52:14;;;;;;;1.90;0.40;;;;;;;;;;4995408;28;20406;-57
2024/02/23 01:54:40;;;;;;;1.60;0.40;;;;;;;;;;4994348;28;20022;-57
2024/02/23 01:57:06;;;;;;;1.20;0.30;;;;;;;;;;5001473;28;20045;-56
2024/02/23 01:59:31;;;;;;;0.52;0.20;;;;;;;;;;4997640;28;20034;-58
2024/02/23 02:01:56;;;;;;;0.93;0.40;;;;;;;;;;4998057;28;20025;-58
2024/02/23 02:04:21;;;;;;;1.50;0.43;;;;;;;;;;4999241;28;20033;-58
2024/02/23 02:06:47;;;;;;;1.13;0.43;;;;;;;;;;4996098;28;20037;-56
2024/02/23 02:09:13;;;;;;;0.57;0.22;;;;;;;;;;5016162;28;20049;-56
2024/02/23 02:11:47;;;;;;;1.03;0.30;;;;;;;;;;4996226;28;20026;-57
2024/02/23 02:14:13;;;;;;;0.65;0.30;;;;;;;;;;4993531;28;20080;-56
2024/02/23 02:16:38;;;;;;;0.57;0.30;;;;;;;;;;4993883;28;20494;-56
2024/02/23 02:19:03;;;;;;;1.83;0.50;;;;;;;;;;4993417;28;20105;-56
2024/02/23 02:21:28;;;;;;;0.68;0.25;;;;;;;;;;4992245;28;20113;-57
2024/02/23 02:23:54;;;;;;;1.20;0.38;;;;;;;;;;4992787;28;20499;-56
2024/02/23 02:26:19;;;;;;;0.65;0.35;;;;;;;;;;4992916;28;20046;-57
2024/02/23 02:28:44;;;;;;;1.67;0.40;;;;;;;;;;4992465;28;20553;-57
2024/02/23 02:31:09;;;;;;;0.80;0.30;;;;;;;;;;4991293;28;20030;-58
2024/02/23 02:33:36;;;;;;;1.17;0.40;;;;;;;;;;5007329;28;20117;-56
2024/02/23 02:36:01;;;;;;;;;;;;;;;;;;5022352;28;20014;-56
2024/02/23 02:38:26;;;;;;;0.75;0.30;;;;;;;;;;5021936;28;19912;-57
2024/02/23 02:40:51;;;;;;;0.70;0.30;;;;;;;;;;5034104;28;20504;-57
2024/02/23 02:43:18;;;;;;;1.45;0.30;;;;;;;;;;5044563;28;20032;-57
2024/02/23 02:45:43;;;;;;;0.63;0.28;;;;;;;;;;5021003;28;20103;-58
2024/02/23 02:48:08;;;;;;;0.90;0.40;;;;;;;;;;5012754;28;20108;-57
2024/02/23 02:50:36;;;;;;;1.07;0.40;;;;;;;;;;5012758;28;20022;-57
2024/02/23 02:53:02;;;;;;;1.38;0.35;;;;;;;;;;5011951;28;20028;-58
2024/02/23 02:55:27;;;;;;;1.03;0.30;;;;;;;;;;5011573;28;20030;-57
2024/02/23 02:57:52;;;;;;;1.58;0.30;;;;;;;;;;5012353;28;20014;-57
2024/02/23 03:00:17;;;;;;;1.60;0.40;;;;;;;;;;5010642;28;20022;-58
2024/02/23 03:02:42;;;;;;;1.37;0.40;;;;;;;;;;5010453;28;20026;-57
2024/02/23 03:05:07;;;;;;;0.70;0.30;;;;;;;;;;5009796;28;20458;-56
2024/02/23 03:07:33;;;;;;;1.63;0.40;;;;;;;;;;5011681;28;20091;-56
2024/02/23 03:09:58;;;;;;;1.55;0.38;;;;;;;;;;5011265;28;20030;-56
2024/02/23 03:12:23;;;;;;;1.80;0.30;;;;;;;;;;5014044;28;20414;-57
2024/02/23 03:14:48;;;;;;;2.20;0.30;;;;;;;;;;5014819;28;20125;-58
2024/02/23 03:17:13;;;;;;;0.87;0.30;;;;;;;;;;5015579;28;20014;-56
2024/02/23 03:19:38;;;;;;;1.50;0.47;;;;;;;;;;5017632;28;20029;-56
2024/02/23 03:22:04;;;;;;;0.35;0.20;;;;;;;;;;5018145;28;20053;-56
2024/02/23 03:24:29;;;;;;;2.17;0.47;;;;;;;;;;5016580;28;20041;-56
2024/02/23 03:26:55;;;;;;;2.23;0.27;;;;;;;;;;5014788;28;20085;-56
2024/02/23 03:29:22;;;;;;;1.15;0.30;;;;;;;;;;5015115;28;20049;-57
2024/02/23 03:31:47;;;;;;;1.25;0.13;;;;;;;;;;5014581;28;20034;-57
2024/02/23 03:34:17;;;;;;;0.43;0.30;;;;;;;;;;5014364;28;20381;-57
2024/02/23 03:36:43;;;;;;;0.95;0.35;;;;;;;;;;5014898;28;20481;-57
2024/02/23 03:39:08;;;;;;;8.27;0.40;;;;;;;;;;5013673;28;20105;-56
2024/02/23 03:41:33;;;;;;;1.02;0.30;;;;;;;;;;5033219;28;20025;-57
2024/02/23 03:43:58;;;;;;;1.43;0.40;;;;;;;;;;5018910;28;20034;-57
2024/02/23 03:46:24;;;;;;;1.50;0.30;;;;;;;;;;5014633;28;20029;-56
2024/02/23 03:48:49;;;;;;;1.20;0.50;;;;;;;;;;5014415;28;20105;-57
2024/02/23 03:51:14;;;;;;;1.27;0.45;;;;;;;;;;5014394;28;20045;-56
2024/02/23 03:53:41;;;;;;;0.80;0.32;;;;;;;;;;5013970;28;20034;-56
2024/02/23 03:56:06;;;;;;;0.80;0.20;;;;;;;;;;5014347;28;20049;-57
2024/02/23 03:58:31;;;;;;;1.15;0.40;;;;;;;;;;5014490;28;20510;-56
2024/02/23 04:00:56;;;;;;;1.05;0.30;;;;;;;;;;5014145;28;20033;-57
2024/02/23 04:03:21;;;;;;;2.20;0.47;;;;;;;;;;5014519;28;20137;-57
2024/02/23 04:05:46;;;;;;;1.20;0.40;;;;;;;;;;5012011;28;20513;-57
2024/02/23 04:08:12;;;;;;;2.17;0.50;;;;;;;;;;5010388;28;20022;-57
2024/02/23 04:10:37;;;;;;;1.38;0.40;;;;;;;;;;4995200;28;20038;-57
2024/02/23 04:13:02;;;;;;;2.27;0.30;;;;;;;;;;4996109;28;20092;-56
2024/02/23 04:15:27;;;;;;;1.33;0.40;;;;;;;;;;4994393;28;20428;-57
2024/02/23 04:17:52;;;;;;;1.33;0.40;;;;;;;;;;4994637;28;20053;-57
2024/02/23 04:20:18;;;;;;;2.20;0.50;;;;;;;;;;4997727;28;20438;-56
2024/02/23 04:22:43;;;;;;;1.80;0.67;;;;;;;;;;4998542;28;20459;-56
2024/02/23 04:25:08;;;;;;;0.43;0.20;;;;;;;;;;4995774;28;20022;-57
2024/02/23 04:27:33;;;;;;;2.60;0.40;;;;;;;;;;4996014;28;20061;-57
2024/02/23 04:29:58;;;;;;;4.57;0.40;;;;;;;;;;4997697;28;20050;-58
2024/02/23 04:32:23;;;;;;;1.50;0.40;;;;;;;;;;5009160;28;20022;-58
2024/02/23 04:34:48;;;;;;;1.23;0.20;;;;;;;;;;5010983;28;20057;-57
2024/02/23 04:37:14;;;;;;;1.83;0.40;;;;;;;;;;5002400;28;20026;-59
2024/02/23 04:39:41;;;;;;;0.77;0.30;;;;;;;;;;5001286;28;20017;-57
2024/02/23 04:42:08;;;;;;;1.55;0.20;;;;;;;;;;5023145;28;20036;-57
2024/02/23 04:44:33;;;;;;;3.05;0.50;;;;;;;;;;5013798;28;20394;-56
2024/02/23 04:46:58;;;;;;;2.30;0.43;;;;;;;;;;5014227;28;20014;-57
2024/02/23 04:49:23;;;;;;;1.50;0.20;;;;;;;;;;5015529;28;20037;-57
2024/02/23 04:51:48;;;;;;;1.02;0.28;;;;;;;;;;5018320;28;20025;-57
2024/02/23 04:54:14;;;;;;;1.38;0.30;;;;;;;;;;5022503;28;20033;-57
2024/02/23 04:56:39;;;;;;;1.40;0.20;;;;;;;;;;5031381;28;20018;-56
2024/02/23 04:59:04;;;;;;;1.77;0.30;;;;;;;;;;5031856;28;20018;-57
2024/02/23 05:01:34;;;;;;;1.30;0.40;;;;;;;;;;5019362;28;20036;-57
2024/02/23 05:03:59;;;;;;;0.98;0.20;;;;;;;;;;4993912;28;20084;-56
2024/02/23 05:06:24;;;;;;;0.80;0.30;;;;;;;;;;4994243;28;20026;-56
2024/02/23 05:08:49;;;;;;;1.70;0.40;;;;;;;;;;4993915;28;20026;-58
2024/02/23 05:11:16;;;;;;;3.08;0.70;;;;;;;;;;4993942;28;20520;-56
2024/02/23 05:13:41;;;;;;;1.08;0.38;;;;;;;;;;4992924;28;20548;-57
2024/02/23 05:16:06;;;;;;;1.15;0.30;;;;;;;;;;4993388;28;20044;-56
2024/02/23 05:18:31;;;;;;;1.38;0.32;;;;;;;;;;5008601;28;20022;-57
2024/02/23 05:20:57;;;;;;;1.52;0.20;;;;;;;;;;4996025;28;20394;-56
2024/02/23 05:23:22;;;;;;;2.45;0.50;;;;;;;;;;5016356;28;20026;-57
2024/02/23 05:25:47;;;;;;;1.00;0.30;;;;;;;;;;5032191;28;20063;-56
2024/02/23 05:28:12;;;;;;;2.70;0.32;;;;;;;;;;5032878;28;20026;-57
2024/02/23 05:30:37;;;;;;;1.75;0.30;;;;;;;;;;5032527;28;20025;-56
2024/02/23 05:33:03;;;;;;;1.95;0.30;;;;;;;;;;5032189;28;20506;-56
2024/02/23 05:35:28;;;;;;;3.40;0.45;;;;;;;;;;5031418;28;20044;-57
2024/02/23 05:37:55;;;;;;;1.67;0.40;;;;;;;;;;5033213;28;20018;-57
2024/02/23 05:40:20;;;;;;;5.20;0.40;;;;;;;;;;5024911;28;20068;-56
2024/02/23 05:42:45;;;;;;;2.40;0.32;;;;;;;;;;5012938;28;20831;-58
2024/02/23 05:45:10;;;;;;;1.38;0.40;;;;;;;;;;5012865;28;20032;-56
2024/02/23 05:47:36;;;;;;;2.03;0.50;;;;;;;;;;5012731;28;20379;-56
2024/02/23 05:50:05;;;;;;;3.58;0.50;;;;;;;;;;5012954;28;20025;-57
2024/02/23 05:52:33;;;;;;;1.58;0.30;;;;;;;;;;5012632;28;20028;-57
2024/02/23 05:54:59;;;;;;;1.60;0.30;;;;;;;;;;5012622;28;20021;-57
2024/02/23 05:57:25;;;;;;;1.48;0.40;;;;;;;;;;4994135;28;20034;-56
2024/02/23 05:59:51;;;;;;;1.15;0.30;;;;;;;;;;4991753;28;20029;-57
2024/02/23 06:02:16;;;;;;;1.52;0.40;;;;;;;;;;4993263;28;20030;-56
2024/02/23 06:04:41;;;;;;;0.60;0.20;;;;;;;;;;5008832;28;20018;-56
2024/02/23 06:07:06;;;;;;;1.07;0.30;;;;;;;;;;5013604;28;20048;-56
2024/02/23 06:09:31;;;;;;;1.83;0.47;;;;;;;;;;5011497;28;20537;-56
2024/02/23 06:11:56;;;;;;;1.73;0.40;;;;;;;;;;5004094;28;20475;-56
2024/02/23 06:14:23;;;;;;;2.25;0.45;;;;;;;;;;5019820;28;20109;-58
2024/02/23 06:16:48;;;;;;;3.22;0.40;;;;;;;;;;5013911;28;20030;-57
2024/02/23 06:19:14;;;;;;;3.05;0.40;;;;;;;;;;5010518;28;20423;-56
2024/02/23 06:21:40;;;;;;;1.40;0.40;;;;;;;;;;5011248;28;20033;-56
2024/02/23 06:24:07;;;;;;;3.85;0.80;;;;;;;;;;5011537;28;20026;-56
2024/02/23 06:26:32;;;;;;;0.70;0.30;;;;;;;;;;5015667;28;20108;-56
2024/02/23 06:28:57;;;;;;;1.53;0.30;;;;;;;;;;5015346;28;20442;-55
2024/02/23 06:31:23;;;;;;;1.65;0.30;;;;;;;;;;5017400;28;20022;-57
2024/02/23 06:33:49;;;;;;;1.38;0.40;;;;;;;;;;5015503;28;20046;-56
2024/02/23 06:36:14;;;;;;;1.95;0.40;;;;;;;;;;5014248;28;20113;-57
2024/02/23 06:38:39;;;;;;;2.97;0.50;;;;;;;;;;5013958;28;20058;-56
2024/02/23 06:41:05;;;;;;;2.13;0.50;;;;;;;;;;5013748;28;20052;-56
2024/02/23 06:43:30;;;;;;;2.63;0.50;;;;;;;;;;5012510;28;20539;-57
2024/02/23 06:45:55;;;;;;;3.85;0.60;;;;;;;;;;5012342;28;20037;-57
2024/02/23 06:48:21;;;;;;;1.40;0.30;;;;;;;;;;5011801;28;20481;-57
2024/02/23 06:50:46;;;;;;;2.33;0.50;;;;;;;;;;5014894;28;20024;-56
2024/02/23 06:53:11;;;;;;;3.13;0.43;;;;;;;;;;5014308;28;20042;-57
2024/02/23 06:55:36;;;;;;;1.63;0.27;;;;;;;;;;5011640;28;20072;-57
2024/02/23 06:58:02;;;;;;;2.97;0.60;;;;;;;;;;5011845;28;20405;-58
2024/02/23 07:00:28;;;;;;;3.63;0.40;;;;;;;;;;5009116;28;20057;-56
2024/02/23 07:02:53;;;;;;;1.23;0.50;;;;;;;;;;5000257;28;20560;-58
2024/02/23 07:05:18;;;;;;;1.48;0.40;;;;;;;;;;5018395;28;20041;-57
2024/02/23 07:07:44;;;;;;;2.97;0.50;;;;;;;;;;5016224;28;20018;-56
2024/02/23 07:10:10;;;;;;;2.27;0.50;;;;;;;;;;5015691;28;20459;-56
2024/02/23 07:12:35;;;;;;;1.35;0.28;;;;;;;;;;5018174;28;20037;-55
2024/02/23 07:15:00;;;;;;;0.60;0.20;;;;;;;;;;5014461;28;20026;-57
2024/02/23 07:17:25;;;;;;;2.17;0.50;;;;;;;;;;5016840;28;20040;-55
2024/02/23 07:19:52;;;;;;;0.50;0.20;;;;;;;;;;5010403;28;20436;-56
2024/02/23 07:22:18;;;;;;;;;;;;;;;;;;5010521;28;20098;-57
2024/02/23 07:24:43;;;;;;;2.33;0.30;;;;;;;;;;5025462;28;19944;-57
2024/02/23 07:27:09;;;;;;;3.28;0.45;;;;;;;;;;5020874;28;20572;-57
2024/02/23 07:29:34;;;;;;;3.07;0.40;;;;;;;;;;5016979;28;20100;-57
2024/02/23 07:31:59;;;;;;;0.98;0.35;;;;;;;;;;5017892;28;20030;-56
2024/02/23 07:34:24;;;;;;;1.80;0.20;;;;;;;;;;5010680;28;20026;-57
2024/02/23 07:36:53;;;;;;;2.13;0.32;;;;;;;;;;5011612;28;20105;-58
2024/02/23 07:39:18;;;;;;;1.77;0.40;;;;;;;;;;5011740;28;20124;-57
2024/02/23 07:41:43;;;;;;;2.25;0.50;;;;;;;;;;5010824;28;20042;-57
2024/02/23 07:44:08;;;;;;;3.53;0.33;;;;;;;;;;5003045;28;20022;-57
2024/02/23 07:46:34;;;;;;;1.90;0.40;;;;;;;;;;4993683;28;20610;-57
2024/02/23 07:48:59;;;;;;;1.73;0.27;;;;;;;;;;5008940;28;20037;-58
2024/02/23 07:51:24;;;;;;;1.70;0.40;;;;;;;;;;5010909;28;20057;-56
2024/02/23 07:53:49;;;;;;;2.33;0.30;;;;;;;;;;5010481;28;20030;-57
2024/02/23 07:56:15;;;;;;;2.63;0.60;;;;;;;;;;5011908;28;20072;-57
2024/02/23 07:58:40;;;;;;;2.63;0.60;;;;;;;;;;5012862;28;20052;-57
2024/02/23 08:01:05;;;;;;;2.00;0.45;;;;;;;;;;5012899;28;20029;-56
2024/02/23 08:03:31;;;;;;;2.53;0.40;;;;;;;;;;5012270;28;20022;-55
2024/02/23 08:05:57;;;;;;;;;;;;;;;;;;5015332;28;20313;-56
2024/02/23 08:08:23;;;;;;;1.92;0.40;;;;;;;;;;5014771;28;19999;-56
2024/02/23 08:10:48;;;;;;;1.92;0.45;;;;;;;;;;5014888;28;20022;-58
2024/02/23 08:13:14;;;;;;;1.83;0.30;;;;;;;;;;5011542;28;20375;-57
2024/02/23 08:15:39;;;;;;;2.53;0.40;;;;;;;;;;5012585;28;20017;-56
2024/02/23 08:18:04;;;;;;;5.73;0.60;;;;;;;;;;5005059;28;20025;-57
2024/02/23 08:20:30;;;;;;;2.50;0.38;;;;;;;;;;4998673;28;20494;-57
2024/02/23 08:22:55;;;;;;;3.45;0.40;;;;;;;;;;4998100;28;20038;-57
2024/02/23 08:25:20;;;;;;;1.83;0.40;;;;;;;;;;5013507;28;20017;-57
2024/02/23 08:27:45;;;;;;;3.17;0.50;;;;;;;;;;5012858;28;20025;-56
2024/02/23 08:30:10;;;;;;;1.43;0.30;;;;;;;;;;5012811;28;20026;-56
2024/02/23 08:32:36;;;;;;;2.60;0.57;;;;;;;;;;5013464;28;20032;-57
2024/02/23 08:35:02;;;;;;;3.05;0.52;;;;;;;;;;5013561;28;20084;-55
2024/02/23 08:37:27;;;;;;;3.25;0.50;;;;;;;;;;5014367;28;20642;-56
2024/02/23 08:39:52;;;;;;;2.70;0.57;;;;;;;;;;5014867;28;20014;-57
2024/02/23 08:42:18;;;;;;;3.03;0.70;;;;;;;;;;5011689;28;20056;-57
2024/02/23 08:44:43;;;;;;;3.75;0.63;;;;;;;;;;5011463;28;20388;-57
2024/02/23 08:47:08;;;;;;;1.35;0.45;;;;;;;;;;5012107;28;20022;-56
2024/02/23 08:49:33;;;;;;;3.60;0.50;;;;;;;;;;5009293;28;20061;-56
2024/02/23 08:51:58;;;;;;;1.67;0.40;;;;;;;;;;5013589;28;20355;-58
2024/02/23 08:54:23;;;;;;;3.33;0.60;;;;;;;;;;5013729;28;20014;-57
2024/02/23 08:56:49;;;;;;;3.37;0.40;;;;;;;;;;5011974;28;20101;-57
2024/02/23 08:59:14;;;;;;;2.47;0.60;;;;;;;;;;5013412;28;20018;-57
2024/02/23 09:01:39;;;;;;;2.08;0.50;;;;;;;;;;5012149;28;20026;-56
2024/02/23 09:04:04;;;;;;;3.07;0.67;;;;;;;;;;5011812;28;20032;-57
2024/02/23 09:06:29;;;;;;;2.97;0.53;;;;;;;;;;5013350;28;20025;-56
2024/02/23 09:08:55;;;;;;;1.83;0.50;;;;;;;;;;4999812;28;20030;-58
2024/02/23 09:11:20;;;;;;;1.63;0.32;;;;;;;;;;4994099;28;20367;-58
2024/02/23 09:13:45;;;;;;;2.70;0.50;;;;;;;;;;4993803;28;20038;-57
2024/02/23 09:16:10;;;;;;;2.00;0.50;;;;;;;;;;4993566;28;20050;-57
2024/02/23 09:18:35;;;;;;;2.10;0.37;;;;;;;;;;4993952;28;20034;-56
2024/02/23 09:21:01;;;;;;;1.83;0.32;;;;;;;;;;4994983;28;20414;-57
2024/02/23 09:23:28;;;;;;;1.03;0.20;;;;;;;;;;5003804;28;20378;-58
2024/02/23 09:25:53;;;;;;;1.70;0.30;;;;;;;;;;5018048;28;20029;-58
2024/02/23 09:28:18;;;;;;;3.00;0.63;;;;;;;;;;5006188;28;20022;-58
2024/02/23 09:30:43;;;;;;;2.28;0.50;;;;;;;;;;5017832;28;20026;-57
2024/02/23 09:33:08;;;;;;;2.10;0.47;;;;;;;;;;5019283;28;20049;-56
2024/02/23 09:35:33;;;;;;;3.40;0.50;;;;;;;;;;5006434;28;20476;-56
2024/02/23 09:38:00;;;;;;;1.83;0.30;;;;;;;;;;5008776;28;20034;-57
2024/02/23 09:40:26;;;;;;;2.33;0.47;;;;;;;;;;5011397;28;20491;-57
2024/02/23 09:42:55;;;;;;;2.33;0.40;;;;;;;;;;5011379;28;20108;-58
2024/02/23 09:45:21;;;;;;;3.75;0.43;;;;;;;;;;5000757;28;20372;-57
2024/02/23 09:47:47;;;;;;;2.40;0.60;;;;;;;;;;4993967;28;20049;-57
2024/02/23 09:50:13;;;;;;;2.78;0.63;;;;;;;;;;4993167;28;20031;-57
2024/02/23 09:52:38;;;;;;;3.88;0.88;;;;;;;;;;4992977;28;20041;-58
2024/02/23 09:55:03;;;;;;;2.37;0.50;;;;;;;;;;4993480;28;20015;-57
2024/02/23 09:57:28;;;;;;;2.22;0.60;;;;;;;;;;4995233;28;20046;-58
2024/02/23 09:59:54;;;;;;;1.77;0.50;;;;;;;;;;4996495;28;20471;-57
2024/02/23 10:02:20;;;;;;;3.25;0.40;;;;;;;;;;4994133;28;20029;-56
2024/02/23 10:04:48;;;;;;;2.53;0.50;;;;;;;;;;4993330;28;20041;-57
2024/02/23 10:07:16;;;;;;;1.45;0.40;;;;;;;;;;4994658;28;20037;-56
2024/02/23 10:09:42;;;;;;;2.95;0.40;;;;;;;;;;4993080;28;20026;-59
2024/02/23 10:12:07;;;;;;;1.60;0.20;;;;;;;;;;5008419;28;20034;-58
2024/02/23 10:14:32;;;;;;;2.05;0.60;;;;;;;;;;5015159;28;20010;-57
2024/02/23 10:16:58;;;;;;;1.63;0.43;;;;;;;;;;5013856;28;20470;-57
2024/02/23 10:19:28;;;;;;;1.85;0.50;;;;;;;;;;5013424;28;20026;-57
2024/02/23 10:21:53;;;;;;;2.10;0.30;;;;;;;;;;5012383;28;20560;-57
2024/02/23 10:24:19;;;;;;;1.63;0.30;;;;;;;;;;5012655;28;20033;-58
2024/02/23 10:26:44;;;;;;;2.07;0.30;;;;;;;;;;5012887;28;20026;-57
2024/02/23 10:29:09;;;;;;;2.75;0.40;;;;;;;;;;5009474;28;20036;-56
2024/02/23 10:31:42;;;;;;;1.97;0.50;;;;;;;;;;5009276;28;20394;-59
2024/02/23 10:34:14;;;;;;;1.17;0.20;;;;;;;;;;5002449;28;20506;-57
2024/02/23 10:36:42;;;;;;;1.88;0.40;;;;;;;;;;5012501;28;20129;-56
2024/02/23 10:39:09;;;;;;;0.82;0.30;;;;;;;;;;5012225;28;20018;-56
2024/02/23 10:41:34;;;;;;;;;;;;;;;;;;5012883;28;20029;-57
2024/02/23 10:43:59;;;;;;;2.50;0.50;;;;;;;;;;5012271;28;19952;-56
2024/02/23 10:46:25;;;;;;;1.50;0.28;;;;;;;;;;5015199;28;20030;-58
2024/02/23 10:48:50;;;;;;;1.57;0.30;;;;;;;;;;5018148;28;20117;-58
2024/02/23 10:51:15;;;;;;;2.15;0.40;;;;;;;;;;5014618;28;21093;-58
2024/02/23 10:53:42;;;;;;;1.87;0.40;;;;;;;;;;4995407;28;20072;-56
2024/02/23 10:56:07;;;;;;;;;;;;;;;;;;4993247;28;20030;-57
2024/02/23 10:58:32;;;;;;;3.08;0.40;;;;;;;;;;4992166;28;19948;-57
2024/02/23 11:01:00;;;;;;;1.80;0.37;;;;;;;;;;5003153;28;20033;-57
2024/02/23 11:03:26;;;;;;;1.45;0.43;;;;;;;;;;5007840;28;20033;-57
2024/02/23 11:05:53;;;;;;;1.27;0.30;;;;;;;;;;4997170;28;20025;-57
2024/02/23 11:08:19;;;;;;;;;;;;;;;;;;4996518;28;20106;-57
2024/02/23 11:10:53;;;;;;;3.03;0.50;;;;;;;;;;5007785;28;19910;-58
2024/02/23 11:13:18;;;;;;;1.92;0.30;;;;;;;;;;5006224;28;20029;-56
2024/02/23 11:15:43;;;;;;;2.87;0.50;;;;;;;;;;4991555;28;20041;-57
2024/02/23 11:18:27;;;;;;;3.30;0.60;;;;;;;;;;4998933;28;20058;-56
2024/02/23 11:20:58;;;;;;;2.10;0.60;;;;;;;;;;5011592;28;20528;-56
2024/02/23 11:23:23;;;;;;;3.85;0.60;;;;;;;;;;5012353;28;20029;-56
2024/02/23 11:26:04;;;;;;;2.00;0.50;;;;;;;;;;5010794;28;20022;-57
2024/02/23 11:28:31;;;;;;;1.40;0.28;;;;;;;;;;5011817;28;20508;-57
2024/02/23 11:30:57;;;;;;;2.30;0.25;;;;;;;;;;5011593;28;20029;-56
2024/02/23 11:33:26;;;;;;;0.67;0.13;;;;;;;;;;5015377;28;20033;-56
2024/02/23 11:35:52;;;;;;;2.50;0.40;;;;;;;;;;5014042;28;20021;-58
2024/02/23 11:38:17;;;;;;;2.13;0.45;;;;;;;;;;5020394;28;20018;-57
2024/02/23 11:40:43;;;;;;;1.30;0.20;;;;;;;;;;5016681;28;20056;-60
2024/02/23 11:43:08;;;;;;;1.35;0.38;;;;;;;;;;5005137;28;20034;-58
2024/02/23 11:45:33;;;;;;;2.43;0.60;;;;;;;;;;5024554;28;20025;-65
2024/02/23 11:47:59;;;;;;;1.00;0.23;;;;;;;;;;5006558;28;20045;-57
2024/02/23 11:50:24;;;;;;;2.10;0.30;;;;;;;;;;5022289;28;20389;-58
2024/02/23 11:52:49;;;;;;;1.58;0.30;;;;;;;;;;5022707;28;20561;-58
2024/02/23 11:55:22;;;;;;;3.43;0.50;;;;;;;;;;5020103;28;20037;-58
2024/02/23 11:57:47;;;;;;;1.30;0.32;;;;;;;;;;5022617;28;20034;-58
2024/02/23 12:00:13;;;;;;;1.50;0.30;;;;;;;;;;5021639;28;20022;-56
2024/02/23 12:02:38;;;;;;;1.98;0.30;;;;;;;;;;5016178;28;20022;-58
2024/02/23 12:05:03;;;;;;;1.90;0.38;;;;;;;;;;5015930;28;20125;-56
2024/02/23 12:07:29;;;;;;;1.80;0.37;;;;;;;;;;5014291;28;20021;-57
2024/02/23 12:09:54;;;;;;;1.27;0.30;;;;;;;;;;5014865;28;20487;-58
2024/02/23 12:12:19;;;;;;;2.67;0.35;;;;;;;;;;5015838;28;20033;-58
2024/02/23 12:14:45;;;;;;;2.70;0.50;;;;;;;;;;5015047;28;20050;-57
2024/02/23 12:17:10;;;;;;;2.40;0.30;;;;;;;;;;5015435;28;20494;-56
2024/02/23 12:19:39;;;;;;;1.92;0.40;;;;;;;;;;5015373;28;20014;-57
2024/02/23 12:22:05;;;;;;;2.78;0.32;;;;;;;;;;5015163;28;20036;-58
2024/02/23 12:24:31;;;;;;;2.88;0.35;;;;;;;;;;5014980;28;20109;-59
2024/02/23 12:26:57;;;;;;;1.90;0.30;;;;;;;;;;5013515;28;20042;-58
2024/02/23 12:29:22;;;;;;;1.23;0.22;;;;;;;;;;5014748;28;20493;-58
2024/02/23 12:31:47;;;;;;;1.50;0.35;;;;;;;;;;5018274;28;20142;-57
2024/02/23 12:34:13;;;;;;;2.70;0.50;;;;;;;;;;5014821;28;20045;-57
2024/02/23 12:36:38;;;;;;;2.03;0.30;;;;;;;;;;5014728;28;20040;-56
2024/02/23 12:39:03;;;;;;;1.48;0.20;;;;;;;;;;5016367;28;20040;-57
2024/02/23 12:41:29;;;;;;;0.77;0.20;;;;;;;;;;5019277;28;20421;-57
2024/02/23 12:43:54;;;;;;;2.50;0.50;;;;;;;;;;5018355;28;20090;-57
2024/02/23 12:46:19;;;;;;;1.33;0.40;;;;;;;;;;5021649;28;20018;-57
2024/02/23 12:48:45;;;;;;;2.58;0.35;;;;;;;;;;5021854;28;20018;-57
2024/02/23 12:51:10;;;;;;;1.27;0.40;;;;;;;;;;5022296;28;20117;-57
2024/02/23 12:53:36;;;;;;;2.07;0.40;;;;;;;;;;5024758;28;20033;-57
2024/02/23 12:56:02;;;;;;;1.25;0.30;;;;;;;;;;5018996;28;20492;-56
2024/02/23 12:58:27;;;;;;;2.85;0.30;;;;;;;;;;5016981;28;20022;-58
2024/02/23 13:00:53;;;;;;;2.67;0.30;;;;;;;;;;5019212;28;20010;-57
2024/02/23 13:03:18;;;;;;;2.40;0.27;;;;;;;;;;5014050;28;20401;-56
2024/02/23 13:05:43;;;;;;;1.50;0.45;;;;;;;;;;5014040;28;20429;-57
2024/02/23 13:08:08;;;;;;;3.53;1.00;;;;;;;;;;5005219;28;20406;-57
2024/02/23 13:10:34;;;;;;;2.80;0.50;;;;;;;;;;5008850;28;20033;-56
2024/02/23 13:13:00;;;;;;;1.95;0.47;;;;;;;;;;4992994;28;20037;-57
2024/02/23 13:15:25;;;;;;;0.38;0.10;;;;;;;;;;4993388;28;20101;-57
2024/02/23 13:17:50;;;;;;;2.28;0.32;;;;;;;;;;4993419;28;20034;-57
2024/02/23 13:20:15;;;;;;;2.03;0.43;;;;;;;;;;4993655;28;20014;-56
2024/02/23 13:22:41;;;;;;;2.80;0.43;;;;;;;;;;4993193;28;20065;-56
2024/02/23 13:25:08;;;;;;;2.47;0.43;;;;;;;;;;4992915;28;20387;-57
2024/02/23 13:27:33;;;;;;;1.17;0.25;;;;;;;;;;4993268;28;20065;-56
2024/02/23 13:29:58;;;;;;;1.73;0.40;;;;;;;;;;4998776;28;20129;-57
2024/02/23 13:32:23;;;;;;;1.67;0.30;;;;;;;;;;5012571;28;20030;-58
2024/02/23 13:34:52;;;;;;;2.90;0.53;;;;;;;;;;5012615;28;20467;-56
2024/02/23 13:37:17;;;;;;;2.70;0.50;;;;;;;;;;5012701;28;20048;-57
2024/02/23 13:39:42;;;;;;;1.88;0.40;;;;;;;;;;5011550;28;20486;-56
2024/02/23 13:42:09;;;;;;;2.58;0.50;;;;;;;;;;5014507;28;20045;-57
2024/02/23 13:44:35;;;;;;;1.90;0.40;;;;;;;;;;5011945;28;20022;-58
2024/02/23 13:47:00;;;;;;;2.60;0.35;;;;;;;;;;5012754;28;20101;-57
2024/02/23 13:49:25;;;;;;;1.47;0.40;;;;;;;;;;5012529;28;20109;-57
2024/02/23 13:51:50;;;;;;;1.87;0.50;;;;;;;;;;5012236;28;20026;-57
2024/02/23 13:54:15;;;;;;;2.83;0.57;;;;;;;;;;5007009;28;20030;-56
2024/02/23 13:56:41;;;;;;;2.80;0.50;;;;;;;;;;4991759;28;20022;-57
2024/02/23 13:59:06;;;;;;;3.95;0.57;;;;;;;;;;5009752;28;20025;-57
2024/02/23 14:01:31;;;;;;;11.73;3.60;;;;;;;;;;5001210;28;20030;-56
2024/02/23 14:03:56;;;;;;;5.22;1.70;;;;;;;;;;4999596;28;20018;-58
2024/02/23 14:06:21;;;;;;;4.32;1.05;;;;;;;;;;5009104;28;20076;-57
2024/02/23 14:08:47;;;;;;;3.60;0.97;;;;;;;;;;5014679;28;20036;-57
2024/02/23 14:11:13;;;;;;;1.75;0.45;;;;;;;;;;5017008;28;20018;-56
2024/02/23 14:13:38;;;;;;;1.97;0.50;;;;;;;;;;5012635;28;20036;-58
2024/02/23 14:16:04;;;;;;;6.22;0.70;;;;;;;;;;5012544;28;20417;-57
2024/02/23 14:18:32;;;;;;;;;;;;;;;;;;5012814;28;20030;-56
2024/02/23 14:20:57;;;;;;;2.47;0.60;;;;;;;;;;5011904;28;19959;-56
2024/02/23 14:23:22;;;;;;;1.77;0.60;;;;;;;;;;5011824;28;20021;-56
2024/02/23 14:25:47;;;;;;;2.47;0.60;;;;;;;;;;5010178;28;20041;-57
2024/02/23 14:28:13;;;;;;;3.40;0.70;;;;;;;;;;4992391;28;20363;-56
2024/02/23 14:30:40;;;;;;;2.55;0.60;;;;;;;;;;5011801;28;20481;-58
2024/02/23 14:33:05;;;;;;;3.50;0.60;;;;;;;;;;5011469;28;20033;-56
2024/02/23 14:35:30;;;;;;;4.32;0.60;;;;;;;;;;5011239;28;20417;-57